Time;durP1;ratioP1;P1;durP2;ratioP2;P2;SDS_P1;SDS_P2;PMS_P1;PMS_P2;Temp;Humidity;BMP_temperature;BMP_pressure;BME280_temperature;BME280_humidity;BME280_pressure;Samples;Min_cycle;Max_cycle;Signal;HPM_P1;HPM_P2
2023/01/09 00:01:53;;;;;;;9.15;2.88;;;;;;;;;;5106957;28;20032;-71
2023/01/09 00:04:19;;;;;;;9.73;2.80;;;;;;;;;;5105353;28;20509;-71
2023/01/09 00:06:52;;;;;;;9.88;2.92;;;;;;;;;;5112512;28;20180;-71
2023/01/09 00:09:18;;;;;;;7.10;2.33;;;;;;;;;;5109288;28;20406;-71
2023/01/09 00:11:44;;;;;;;8.40;2.90;;;;;;;;;;5094588;28;20117;-71
2023/01/09 00:14:10;;;;;;;6.72;2.60;;;;;;;;;;5097195;28;20048;-71
2023/01/09 00:16:36;;;;;;;9.13;2.60;;;;;;;;;;5095209;28;20044;-71
2023/01/09 00:19:02;;;;;;;8.45;2.88;;;;;;;;;;5113682;28;20043;-71
2023/01/09 00:21:28;;;;;;;7.68;2.72;;;;;;;;;;5105303;28;20479;-71
2023/01/09 00:23:54;;;;;;;8.18;2.97;;;;;;;;;;5103374;27;20036;-71
2023/01/09 00:26:21;;;;;;;7.85;2.75;;;;;;;;;;5120784;27;20432;-71
2023/01/09 00:28:47;;;;;;;7.68;2.50;;;;;;;;;;5106587;28;20044;-71
2023/01/09 00:31:13;;;;;;;7.32;2.65;;;;;;;;;;5105224;27;20035;-72
2023/01/09 00:33:49;;;;;;;6.95;2.28;;;;;;;;;;5114975;28;20435;-71
2023/01/09 00:36:16;;;;;;;6.93;2.70;;;;;;;;;;5114573;28;20489;-71
2023/01/09 00:38:42;;;;;;;11.20;2.97;;;;;;;;;;5114500;28;20570;-72
2023/01/09 00:41:10;;;;;;;11.93;3.50;;;;;;;;;;5113602;28;20378;-71
2023/01/09 00:43:57;;;;;;;7.85;3.20;;;;;;;;;;5115859;28;20378;-71
2023/01/09 00:46:25;;;;;;;8.40;3.35;;;;;;;;;;5125560;27;20047;-72
2023/01/09 00:48:52;;;;;;;7.20;3.30;;;;;;;;;;5136437;27;20051;-72
2023/01/09 00:51:19;;;;;;;11.73;3.42;;;;;;;;;;5116085;27;20444;-70
2023/01/09 00:53:46;;;;;;;8.13;3.50;;;;;;;;;;5106598;28;20040;-71
2023/01/09 00:56:14;;;;;;;8.82;3.70;;;;;;;;;;5097622;28;20036;-72
2023/01/09 00:58:40;;;;;;;10.50;3.83;;;;;;;;;;5107873;27;20040;-72
2023/01/09 01:01:07;;;;;;;6.65;3.85;;;;;;;;;;5098796;28;20035;-73
2023/01/09 01:03:33;;;;;;;10.57;4.45;;;;;;;;;;5095533;28;20105;-72
2023/01/09 01:08:44;;;;;;;7.55;2.45;;;;;;;;;;5107625;28;20044;-73
2023/01/09 01:11:11;;;;;;;7.53;2.45;;;;;;;;;;5104065;28;20469;-72
2023/01/09 01:13:38;;;;;;;6.85;2.08;;;;;;;;;;5115757;27;20082;-74
2023/01/09 01:16:05;;;;;;;5.82;1.80;;;;;;;;;;5098100;28;20044;-71
2023/01/09 01:18:31;;;;;;;4.70;1.65;;;;;;;;;;5101832;28;20135;-71
2023/01/09 01:20:57;;;;;;;5.68;1.40;;;;;;;;;;5109046;27;20040;-72
2023/01/09 01:23:23;;;;;;;4.97;1.38;;;;;;;;;;5103888;28;20043;-70
2023/01/09 01:25:50;;;;;;;5.15;1.42;;;;;;;;;;5107505;28;20046;-72
2023/01/09 01:28:16;;;;;;;3.17;1.30;;;;;;;;;;5110521;27;20039;-72
2023/01/09 01:30:42;;;;;;;4.50;1.33;;;;;;;;;;5096142;28;20093;-72
2023/01/09 01:33:09;;;;;;;3.60;1.30;;;;;;;;;;5098481;28;20040;-71
2023/01/09 01:35:35;;;;;;;4.95;1.58;;;;;;;;;;5113666;28;20063;-72
2023/01/09 01:38:01;;;;;;;3.20;1.30;;;;;;;;;;5114497;28;20048;-71
2023/01/09 01:40:28;;;;;;;5.03;1.55;;;;;;;;;;5114763;28;20044;-72
2023/01/09 01:42:54;;;;;;;5.00;1.95;;;;;;;;;;5117783;27;20036;-71
2023/01/09 01:45:27;;;;;;;6.38;1.75;;;;;;;;;;5094341;28;20115;-72
2023/01/09 01:48:28;;;;;;;4.70;1.90;;;;;;;;;;5094357;28;20558;-71
2023/01/09 01:51:04;;;;;;;5.25;1.67;;;;;;;;;;5035223;28;20060;-71
2023/01/09 01:53:34;;;;;;;5.63;1.95;;;;;;;;;;5051634;28;20068;-71
2023/01/09 01:56:00;;;;;;;5.35;1.80;;;;;;;;;;5051741;28;20045;-71
2023/01/09 01:58:27;;;;;;;4.90;1.70;;;;;;;;;;5062599;28;20167;-71
2023/01/09 02:00:53;;;;;;;4.32;1.65;;;;;;;;;;5062744;28;20051;-72
2023/01/09 02:03:21;;;;;;;4.57;1.52;;;;;;;;;;5058365;28;20566;-72
2023/01/09 02:05:47;;;;;;;5.18;1.50;;;;;;;;;;5062748;28;20565;-71
2023/01/09 02:08:13;;;;;;;4.97;1.65;;;;;;;;;;5070471;28;20040;-71
2023/01/09 02:10:39;;;;;;;5.22;1.52;;;;;;;;;;5042007;28;20059;-71
2023/01/09 02:13:06;;;;;;;4.47;1.60;;;;;;;;;;5067223;28;20052;-72
2023/01/09 02:15:41;;;;;;;5.53;1.80;;;;;;;;;;5069752;28;20047;-71
2023/01/09 02:18:25;;;;;;;5.45;1.50;;;;;;;;;;5069837;28;20056;-71
2023/01/09 02:20:54;;;;;;;4.85;2.00;;;;;;;;;;5063401;28;20037;-71
2023/01/09 02:23:39;;;;;;;5.28;2.40;;;;;;;;;;5058769;28;20052;-72
2023/01/09 02:26:23;;;;;;;7.07;2.90;;;;;;;;;;5108404;27;20044;-72
2023/01/09 02:28:52;;;;;;;7.28;3.28;;;;;;;;;;5099879;28;20050;-71
2023/01/09 02:31:21;;;;;;;8.07;3.65;;;;;;;;;;5107032;28;20098;-71
2023/01/09 02:33:53;;;;;;;7.22;3.60;;;;;;;;;;5108848;28;20035;-71
2023/01/09 02:36:22;;;;;;;8.88;3.97;;;;;;;;;;5108323;28;20043;-71
2023/01/09 02:39:04;;;;;;;8.30;3.55;;;;;;;;;;5103188;28;20043;-71
2023/01/09 02:41:30;;;;;;;;;;;;;;;;;;5111910;28;20056;-71
2023/01/09 02:44:11;;;;;;;7.03;3.28;;;;;;;;;;5112189;28;19927;-71
2023/01/09 02:46:37;;;;;;;9.02;3.55;;;;;;;;;;5114043;28;20401;-71
2023/01/09 02:49:03;;;;;;;8.07;2.90;;;;;;;;;;5111229;28;20040;-71
2023/01/09 02:51:35;;;;;;;6.95;3.05;;;;;;;;;;5114127;27;20043;-71
2023/01/09 02:54:01;;;;;;;;;;;;;;;;;;5120914;27;20044;-70
2023/01/09 02:56:32;;;;;;;8.07;2.60;;;;;;;;;;5109848;28;19958;-70
2023/01/09 02:59:06;;;;;;;7.45;2.80;;;;;;;;;;5095449;28;20513;-70
2023/01/09 03:01:51;;;;;;;7.70;2.95;;;;;;;;;;5110591;28;20043;-70
2023/01/09 03:04:17;;;;;;;10.18;3.05;;;;;;;;;;5110419;28;20062;-70
2023/01/09 03:06:53;;;;;;;7.45;2.50;;;;;;;;;;5117721;28;20043;-70
2023/01/09 03:09:21;;;;;;;7.70;2.33;;;;;;;;;;5117404;27;20035;-70
2023/01/09 03:11:49;;;;;;;8.60;2.72;;;;;;;;;;5110537;28;20542;-70
2023/01/09 03:14:17;;;;;;;6.97;2.72;;;;;;;;;;5109326;28;20390;-70
2023/01/09 03:16:46;;;;;;;9.40;2.80;;;;;;;;;;5111875;28;20091;-70
2023/01/09 03:19:15;;;;;;;6.75;2.70;;;;;;;;;;5098889;28;20040;-70
2023/01/09 03:21:41;;;;;;;5.13;2.47;;;;;;;;;;5103275;28;20493;-70
2023/01/09 03:24:07;;;;;;;7.30;2.55;;;;;;;;;;5108119;28;20036;-71
2023/01/09 03:26:34;;;;;;;6.03;2.40;;;;;;;;;;5099974;28;20447;-71
2023/01/09 03:29:00;;;;;;;9.00;2.63;;;;;;;;;;5109453;28;20047;-71
2023/01/09 03:31:26;;;;;;;8.77;2.58;;;;;;;;;;5107646;28;20406;-71
2023/01/09 03:33:53;;;;;;;10.05;2.53;;;;;;;;;;5117971;27;20099;-71
2023/01/09 03:36:19;;;;;;;9.38;2.90;;;;;;;;;;5093557;28;20044;-71
2023/01/09 03:38:45;;;;;;;9.23;2.97;;;;;;;;;;5105789;28;20051;-71
2023/01/09 03:41:11;;;;;;;13.25;2.97;;;;;;;;;;5096776;28;20249;-71
2023/01/09 03:43:38;;;;;;;6.82;2.45;;;;;;;;;;5098760;28;20055;-71
2023/01/09 03:46:04;;;;;;;7.15;2.55;;;;;;;;;;5096594;28;20500;-72
2023/01/09 03:48:30;;;;;;;9.25;2.50;;;;;;;;;;5107421;28;20039;-71
2023/01/09 03:50:56;;;;;;;8.57;2.70;;;;;;;;;;5114796;28;20043;-71
2023/01/09 03:53:23;;;;;;;8.05;2.83;;;;;;;;;;5112913;28;20056;-70
2023/01/09 03:55:51;;;;;;;7.80;3.22;;;;;;;;;;5123949;27;20051;-70
2023/01/09 03:58:17;;;;;;;10.00;3.10;;;;;;;;;;5104465;28;20043;-71
2023/01/09 04:00:47;;;;;;;8.20;2.97;;;;;;;;;;5111492;28;20054;-71
2023/01/09 04:03:14;;;;;;;9.15;2.80;;;;;;;;;;5113967;28;20048;-71
2023/01/09 04:05:40;;;;;;;8.00;3.25;;;;;;;;;;5114257;28;20512;-71
2023/01/09 04:08:06;;;;;;;8.60;3.67;;;;;;;;;;5115391;28;20044;-71
2023/01/09 04:10:33;;;;;;;8.63;2.90;;;;;;;;;;5124352;27;20074;-71
2023/01/09 04:12:59;;;;;;;9.50;3.50;;;;;;;;;;5115613;28;20051;-71
2023/01/09 04:15:26;;;;;;;8.18;3.20;;;;;;;;;;5116794;28;20093;-71
2023/01/09 04:17:52;;;;;;;7.32;3.28;;;;;;;;;;5113207;28;20047;-71
2023/01/09 04:20:18;;;;;;;8.60;3.55;;;;;;;;;;5115243;28;20062;-71
2023/01/09 04:22:44;;;;;;;8.60;4.10;;;;;;;;;;5104143;27;20036;-71
2023/01/09 04:25:10;;;;;;;11.05;4.05;;;;;;;;;;5115638;27;20040;-71
2023/01/09 04:27:36;;;;;;;10.00;3.97;;;;;;;;;;5093537;27;20485;-70
2023/01/09 04:30:03;;;;;;;11.23;4.80;;;;;;;;;;5108258;28;20085;-71
2023/01/09 04:32:29;;;;;;;11.82;5.90;;;;;;;;;;5113050;28;20042;-71
2023/01/09 04:34:55;;;;;;;13.15;6.65;;;;;;;;;;5112505;28;20043;-71
2023/01/09 04:37:22;;;;;;;14.25;7.43;;;;;;;;;;5103707;28;20036;-71
2023/01/09 04:39:48;;;;;;;16.02;7.20;;;;;;;;;;5100816;28;20455;-71
2023/01/09 04:42:15;;;;;;;14.35;7.78;;;;;;;;;;5114844;27;20084;-71
2023/01/09 04:44:41;;;;;;;12.82;8.32;;;;;;;;;;5121006;27;20131;-70
2023/01/09 04:47:07;;;;;;;15.15;7.90;;;;;;;;;;5102552;27;20040;-71
2023/01/09 04:49:33;;;;;;;16.70;8.55;;;;;;;;;;5107223;28;20546;-71
2023/01/09 04:51:59;;;;;;;17.38;8.57;;;;;;;;;;5099916;28;20040;-71
2023/01/09 04:54:26;;;;;;;14.35;8.13;;;;;;;;;;5110742;28;20043;-70
2023/01/09 04:56:53;;;;;;;17.15;8.48;;;;;;;;;;5099543;28;20054;-70
2023/01/09 04:59:19;;;;;;;17.48;8.70;;;;;;;;;;5095865;28;20036;-71
2023/01/09 05:01:45;;;;;;;16.20;9.15;;;;;;;;;;5110361;28;20050;-71
2023/01/09 05:04:12;;;;;;;17.67;7.93;;;;;;;;;;5107801;28;20559;-71
2023/01/09 05:06:38;;;;;;;15.85;9.68;;;;;;;;;;5094320;28;20085;-71
2023/01/09 05:09:04;;;;;;;19.35;9.82;;;;;;;;;;5107906;28;20040;-70
2023/01/09 05:11:31;;;;;;;18.95;10.60;;;;;;;;;;5114973;27;20047;-70
2023/01/09 05:13:57;;;;;;;18.35;10.38;;;;;;;;;;5128958;27;20505;-71
2023/01/09 05:16:23;;;;;;;20.48;9.90;;;;;;;;;;5099597;28;20040;-71
2023/01/09 05:18:50;;;;;;;19.17;11.00;;;;;;;;;;5101749;28;20048;-70
2023/01/09 05:21:16;;;;;;;22.17;11.48;;;;;;;;;;5108128;28;20048;-73
2023/01/09 05:23:42;;;;;;;17.77;11.77;;;;;;;;;;5109114;28;20051;-71
2023/01/09 05:26:08;;;;;;;20.33;11.60;;;;;;;;;;5094174;28;20044;-70
2023/01/09 05:28:34;;;;;;;22.38;12.55;;;;;;;;;;5107586;27;20054;-71
2023/01/09 05:31:00;;;;;;;16.45;11.73;;;;;;;;;;5109634;28;20044;-69
2023/01/09 05:33:26;;;;;;;16.80;11.50;;;;;;;;;;5095641;28;20043;-71
2023/01/09 05:35:52;;;;;;;20.95;12.55;;;;;;;;;;5094701;28;20055;-70
2023/01/09 05:38:19;;;;;;;20.67;13.18;;;;;;;;;;5109458;27;20072;-71
2023/01/09 05:40:45;;;;;;;19.85;13.10;;;;;;;;;;5101065;27;20040;-71
2023/01/09 05:43:11;;;;;;;21.08;13.50;;;;;;;;;;5114155;28;20083;-71
2023/01/09 05:45:37;;;;;;;24.08;13.80;;;;;;;;;;5105516;28;20085;-71
2023/01/09 05:48:03;;;;;;;18.83;13.57;;;;;;;;;;5100168;28;20051;-71
2023/01/09 05:50:29;;;;;;;23.80;13.35;;;;;;;;;;5107319;27;20052;-70
2023/01/09 05:52:55;;;;;;;19.67;13.23;;;;;;;;;;5104178;28;20040;-71
2023/01/09 05:55:21;;;;;;;22.35;12.45;;;;;;;;;;5121539;27;20078;-71
2023/01/09 05:57:47;;;;;;;24.25;12.75;;;;;;;;;;5111077;28;20558;-71
2023/01/09 06:00:14;;;;;;;16.42;12.00;;;;;;;;;;5103286;28;20032;-71
2023/01/09 06:02:40;;;;;;;17.27;11.35;;;;;;;;;;5107450;28;20075;-71
2023/01/09 06:05:06;;;;;;;19.90;11.45;;;;;;;;;;5110367;28;20055;-71
2023/01/09 06:07:35;;;;;;;18.00;10.30;;;;;;;;;;5113075;28;20489;-71
2023/01/09 06:10:01;;;;;;;20.52;11.27;;;;;;;;;;5113317;27;20043;-71
2023/01/09 06:12:27;;;;;;;15.73;9.85;;;;;;;;;;5111274;28;20044;-71
2023/01/09 06:14:53;;;;;;;17.75;10.85;;;;;;;;;;5111992;28;20093;-71
2023/01/09 06:17:19;;;;;;;19.17;10.68;;;;;;;;;;5112682;28;20043;-69
2023/01/09 06:19:45;;;;;;;17.35;9.30;;;;;;;;;;5111296;27;20146;-70
2023/01/09 06:22:11;;;;;;;15.27;10.35;;;;;;;;;;5100758;28;20521;-71
2023/01/09 06:24:37;;;;;;;18.20;10.15;;;;;;;;;;5110270;28;21511;-71
2023/01/09 06:27:05;;;;;;;18.67;10.00;;;;;;;;;;5109286;28;20715;-71
2023/01/09 06:29:31;;;;;;;19.05;9.65;;;;;;;;;;5099948;28;20040;-71
2023/01/09 06:31:57;;;;;;;14.40;9.07;;;;;;;;;;5096037;28;20474;-71
2023/01/09 06:34:23;;;;;;;16.50;9.52;;;;;;;;;;5102384;28;20404;-71
2023/01/09 06:36:49;;;;;;;16.80;9.23;;;;;;;;;;5104220;28;20097;-69
2023/01/09 06:39:15;;;;;;;19.00;9.45;;;;;;;;;;5099097;28;20044;-71
2023/01/09 06:41:43;;;;;;;21.23;9.88;;;;;;;;;;5103067;28;20042;-71
2023/01/09 06:44:09;;;;;;;15.70;8.70;;;;;;;;;;5104120;28;20044;-71
2023/01/09 06:46:35;;;;;;;18.45;9.02;;;;;;;;;;5100510;28;20050;-70
2023/01/09 06:49:02;;;;;;;15.68;9.48;;;;;;;;;;5108743;28;20172;-71
2023/01/09 06:51:28;;;;;;;16.38;8.70;;;;;;;;;;5109095;28;20044;-71
2023/01/09 06:53:54;;;;;;;12.73;8.50;;;;;;;;;;5096011;28;20039;-70
2023/01/09 06:56:20;;;;;;;14.93;8.48;;;;;;;;;;5126538;27;20047;-71
2023/01/09 06:58:46;;;;;;;14.82;8.20;;;;;;;;;;5110909;28;20096;-71
2023/01/09 07:01:12;;;;;;;15.30;8.35;;;;;;;;;;5109541;28;20050;-70
2023/01/09 07:03:38;;;;;;;17.92;8.32;;;;;;;;;;5104067;28;20075;-71
2023/01/09 07:06:04;;;;;;;15.52;7.82;;;;;;;;;;5120387;28;20044;-71
2023/01/09 07:08:30;;;;;;;14.93;7.97;;;;;;;;;;5091859;28;20040;-71
2023/01/09 07:10:56;;;;;;;13.45;7.15;;;;;;;;;;5104763;28;20039;-71
2023/01/09 07:13:22;;;;;;;13.90;7.43;;;;;;;;;;5111309;28;20047;-69
2023/01/09 07:15:49;;;;;;;12.15;6.20;;;;;;;;;;5093277;28;20051;-71
2023/01/09 07:18:15;;;;;;;12.98;6.20;;;;;;;;;;5108669;27;20048;-71
2023/01/09 07:20:41;;;;;;;12.27;6.45;;;;;;;;;;5103784;28;20073;-71
2023/01/09 07:23:10;;;;;;;13.20;6.28;;;;;;;;;;5108787;28;20059;-71
2023/01/09 07:25:36;;;;;;;12.48;5.65;;;;;;;;;;5082291;28;20123;-71
2023/01/09 07:28:02;;;;;;;14.43;5.53;;;;;;;;;;5104787;28;20093;-71
2023/01/09 07:30:28;;;;;;;11.35;4.95;;;;;;;;;;5096241;28;20494;-71
2023/01/09 07:32:54;;;;;;;11.40;5.07;;;;;;;;;;5107013;28;20104;-71
2023/01/09 07:35:21;;;;;;;12.05;5.35;;;;;;;;;;5107223;28;20081;-70
2023/01/09 07:37:47;;;;;;;14.13;5.45;;;;;;;;;;5108304;27;20036;-71
2023/01/09 07:40:13;;;;;;;13.63;6.55;;;;;;;;;;5106103;28;20036;-71
2023/01/09 07:42:39;;;;;;;13.27;5.57;;;;;;;;;;5101215;28;20040;-71
2023/01/09 07:45:05;;;;;;;13.10;5.35;;;;;;;;;;5117700;27;20035;-71
2023/01/09 07:47:31;;;;;;;12.15;5.40;;;;;;;;;;5106352;28;20048;-71
2023/01/09 07:49:57;;;;;;;11.25;5.10;;;;;;;;;;5103471;28;20050;-71
2023/01/09 07:52:24;;;;;;;13.70;5.38;;;;;;;;;;5095671;28;20047;-70
2023/01/09 07:54:50;;;;;;;14.77;5.72;;;;;;;;;;5098801;28;20072;-70
2023/01/09 07:57:16;;;;;;;12.43;5.53;;;;;;;;;;5097947;28;20406;-71
2023/01/09 07:59:42;;;;;;;17.08;5.50;;;;;;;;;;5102260;28;20390;-71
2023/01/09 08:02:08;;;;;;;14.98;5.70;;;;;;;;;;5103954;28;20067;-73
2023/01/09 08:04:35;;;;;;;10.85;4.80;;;;;;;;;;5095481;28;20055;-73
2023/01/09 08:07:02;;;;;;;14.95;5.18;;;;;;;;;;5106411;27;20077;-71
2023/01/09 08:09:28;;;;;;;11.20;4.85;;;;;;;;;;5117322;27;20050;-73
2023/01/09 08:11:54;;;;;;;11.18;4.95;;;;;;;;;;5104071;28;20052;-75
2023/01/09 08:14:20;;;;;;;10.45;4.65;;;;;;;;;;5099529;28;20386;-71
2023/01/09 08:16:46;;;;;;;13.50;4.70;;;;;;;;;;5114831;28;20039;-71
2023/01/09 08:19:12;;;;;;;11.13;4.55;;;;;;;;;;5110298;27;20051;-71
2023/01/09 08:21:39;;;;;;;10.57;4.63;;;;;;;;;;5095237;28;20048;-71
2023/01/09 08:24:05;;;;;;;13.35;4.50;;;;;;;;;;5095163;28;20105;-70
2023/01/09 08:26:31;;;;;;;12.50;4.20;;;;;;;;;;5101176;28;20047;-70
2023/01/09 08:28:57;;;;;;;10.75;4.35;;;;;;;;;;5114681;28;20054;-70
2023/01/09 08:31:23;;;;;;;11.35;4.50;;;;;;;;;;5112116;28;20104;-71
2023/01/09 08:33:49;;;;;;;12.35;4.28;;;;;;;;;;5114323;28;20044;-70
2023/01/09 08:36:15;;;;;;;12.18;4.45;;;;;;;;;;5109734;28;20047;-71
2023/01/09 08:38:41;;;;;;;12.57;4.43;;;;;;;;;;5115149;28;20044;-70
2023/01/09 08:49:22;;;;;;;10.02;3.90;;;;;;;;;;5107915;28;20386;-71
2023/01/09 08:51:48;;;;;;;13.00;4.28;;;;;;;;;;5113610;28;20142;-72
2023/01/09 08:54:14;;;;;;;14.25;4.90;;;;;;;;;;5115208;27;20054;-71
2023/01/09 08:56:40;;;;;;;13.88;4.43;;;;;;;;;;5114865;27;20048;-71
2023/01/09 08:59:06;;;;;;;12.68;4.30;;;;;;;;;;5114679;28;20047;-71
2023/01/09 09:01:32;;;;;;;15.25;4.50;;;;;;;;;;5114705;28;20048;-71
2023/01/09 09:03:58;;;;;;;14.55;4.28;;;;;;;;;;5113874;28;20052;-72
2023/01/09 09:06:24;;;;;;;11.00;3.85;;;;;;;;;;5114807;28;20060;-71
2023/01/09 09:08:50;;;;;;;10.57;3.97;;;;;;;;;;5103113;28;20044;-72
2023/01/09 09:11:16;;;;;;;10.00;3.75;;;;;;;;;;5134777;27;20050;-71
2023/01/09 09:13:42;;;;;;;13.25;4.18;;;;;;;;;;5135136;27;20035;-72
2023/01/09 09:16:08;;;;;;;12.93;4.28;;;;;;;;;;5134916;27;20039;-72
2023/01/09 09:18:35;;;;;;;13.90;4.68;;;;;;;;;;5115357;27;20047;-71
2023/01/09 09:21:01;;;;;;;13.70;4.30;;;;;;;;;;5112384;28;20059;-72
2023/01/09 09:23:27;;;;;;;13.40;4.35;;;;;;;;;;5112683;27;20043;-72
2023/01/09 09:25:53;;;;;;;13.40;4.43;;;;;;;;;;5112053;28;20044;-72
2023/01/09 09:28:19;;;;;;;10.27;4.20;;;;;;;;;;5114369;28;20390;-71
2023/01/09 09:30:45;;;;;;;11.88;4.22;;;;;;;;;;5114166;28;20376;-71
2023/01/09 09:33:11;;;;;;;9.35;3.90;;;;;;;;;;5114127;28;20074;-71
2023/01/09 09:35:37;;;;;;;14.90;4.30;;;;;;;;;;5113508;28;20043;-72
2023/01/09 09:38:04;;;;;;;8.82;4.07;;;;;;;;;;5112422;28;20051;-71
2023/01/09 09:40:30;;;;;;;13.70;4.50;;;;;;;;;;5110571;28;20074;-72
2023/01/09 09:45:54;;;;;;;14.70;4.30;;;;;;;;;;5134607;27;20051;-72
2023/01/09 09:48:20;;;;;;;13.02;3.95;;;;;;;;;;5108562;27;20059;-72
2023/01/09 09:51:04;;;;;;;14.85;4.30;;;;;;;;;;5110407;28;20097;-71
2023/01/09 09:53:36;;;;;;;11.18;4.40;;;;;;;;;;5111490;28;20111;-74
2023/01/09 09:56:03;;;;;;;17.42;4.53;;;;;;;;;;5110781;28;20426;-76
2023/01/09 09:58:37;;;;;;;11.77;4.70;;;;;;;;;;5113780;28;20047;-69
2023/01/09 10:01:03;;;;;;;13.13;4.70;;;;;;;;;;5111509;28;20048;-69
2023/01/09 10:03:32;;;;;;;13.05;4.45;;;;;;;;;;5107068;27;20417;-69
2023/01/09 10:06:00;;;;;;;17.40;4.50;;;;;;;;;;5108387;28;20060;-67
2023/01/09 10:08:49;;;;;;;15.93;4.53;;;;;;;;;;5107645;27;20048;-69
2023/01/09 10:11:18;;;;;;;16.02;4.82;;;;;;;;;;5067101;28;20096;-70
2023/01/09 10:16:45;;;;;;;12.40;4.45;;;;;;;;;;5051196;28;20076;-69
2023/01/09 10:19:26;;;;;;;13.55;4.40;;;;;;;;;;5068775;28;20049;-69
2023/01/09 10:21:59;;;;;;;12.98;4.72;;;;;;;;;;5069723;28;20052;-70
2023/01/09 10:24:43;;;;;;;10.80;4.25;;;;;;;;;;5069690;28;20048;-67
2023/01/09 10:27:16;;;;;;;11.60;3.80;;;;;;;;;;5068859;28;20402;-67
2023/01/09 10:29:50;;;;;;;11.50;4.10;;;;;;;;;;5068466;28;20092;-67
2023/01/09 10:32:26;;;;;;;11.55;3.80;;;;;;;;;;5069449;28;20052;-67
2023/01/09 10:35:11;;;;;;;8.63;3.75;;;;;;;;;;5069761;28;20052;-67
2023/01/09 10:37:39;;;;;;;12.40;4.20;;;;;;;;;;5043690;28;20057;-67
2023/01/09 10:40:20;;;;;;;10.25;3.70;;;;;;;;;;5069916;28;20099;-67
2023/01/09 10:42:48;;;;;;;11.60;3.75;;;;;;;;;;5069685;28;20060;-68
2023/01/09 10:45:20;;;;;;;10.73;3.58;;;;;;;;;;5069081;28;20051;-67
2023/01/09 10:47:46;;;;;;;8.93;3.28;;;;;;;;;;5081833;28;20056;-68
2023/01/09 10:50:18;;;;;;;12.48;3.95;;;;;;;;;;5110884;28;20401;-68
2023/01/09 10:52:44;;;;;;;10.27;3.20;;;;;;;;;;5125662;27;20069;-68
2023/01/09 10:55:18;;;;;;;9.63;2.90;;;;;;;;;;5131802;27;20043;-68
2023/01/09 10:57:45;;;;;;;7.68;2.95;;;;;;;;;;5096763;28;20088;-68
2023/01/09 11:00:16;;;;;;;9.00;3.08;;;;;;;;;;5110708;28;20054;-70
2023/01/09 11:02:42;;;;;;;11.05;3.22;;;;;;;;;;5107652;28;20059;-73
2023/01/09 11:05:12;;;;;;;8.68;3.00;;;;;;;;;;5098026;28;20048;-67
2023/01/09 11:07:41;;;;;;;8.68;2.70;;;;;;;;;;5108719;28;20046;-68
2023/01/09 11:10:10;;;;;;;8.00;2.85;;;;;;;;;;5107621;28;20044;-68
2023/01/09 11:12:36;;;;;;;11.52;3.17;;;;;;;;;;5105975;28;20052;-68
2023/01/09 11:15:18;;;;;;;8.63;3.10;;;;;;;;;;5111121;28;20447;-68
2023/01/09 11:17:44;;;;;;;9.38;3.03;;;;;;;;;;5110215;28;20044;-67
2023/01/09 11:20:24;;;;;;;8.77;3.20;;;;;;;;;;5101104;28;20051;-68
2023/01/09 11:22:52;;;;;;;8.52;3.08;;;;;;;;;;5112051;28;20410;-67
2023/01/09 11:25:19;;;;;;;8.20;3.20;;;;;;;;;;5100539;28;20472;-65
2023/01/09 11:28:17;;;;;;;10.27;3.10;;;;;;;;;;5101398;28;20104;-67
2023/01/09 11:30:58;;;;;;;7.95;3.38;;;;;;;;;;5088894;28;20474;-67
2023/01/09 11:33:25;;;;;;;9.38;3.58;;;;;;;;;;5097807;28;20048;-68
2023/01/09 11:36:09;;;;;;;10.27;3.28;;;;;;;;;;5097276;28;20500;-68
2023/01/09 11:38:49;;;;;;;9.65;4.30;;;;;;;;;;5104180;27;20051;-68
2023/01/09 11:41:20;;;;;;;7.50;4.20;;;;;;;;;;5100365;28;20066;-68
2023/01/09 11:43:48;;;;;;;11.90;3.88;;;;;;;;;;5096705;28;20076;-68
2023/01/09 11:46:29;;;;;;;9.30;4.25;;;;;;;;;;5103064;28;20051;-68
2023/01/09 11:48:57;;;;;;;11.73;4.22;;;;;;;;;;5099418;28;20159;-68
2023/01/09 11:51:25;;;;;;;10.10;4.35;;;;;;;;;;5103537;28;20046;-68
2023/01/09 11:54:11;;;;;;;9.77;4.40;;;;;;;;;;5095096;28;20139;-68
2023/01/09 11:56:37;;;;;;;9.25;4.70;;;;;;;;;;5098326;28;20047;-68
2023/01/09 11:59:20;;;;;;;12.25;8.32;;;;;;;;;;5110393;28;20043;-68
2023/01/09 12:01:49;;;;;;;10.77;6.97;;;;;;;;;;5105552;28;20101;-68
2023/01/09 12:04:27;;;;;;;10.32;6.25;;;;;;;;;;5106796;27;20052;-68
2023/01/09 12:07:01;;;;;;;9.48;6.05;;;;;;;;;;5109509;27;20079;-68
2023/01/09 12:09:54;;;;;;;9.52;5.32;;;;;;;;;;5102264;27;20044;-68
2023/01/09 12:12:38;;;;;;;10.13;5.85;;;;;;;;;;5093712;27;20163;-68
2023/01/09 12:15:23;;;;;;;12.90;6.40;;;;;;;;;;5103604;27;20498;-68
2023/01/09 12:18:08;;;;;;;12.07;5.90;;;;;;;;;;5099367;27;20042;-67
2023/01/09 12:20:46;;;;;;;13.05;6.72;;;;;;;;;;5107246;27;20040;-68
2023/01/09 12:23:24;;;;;;;14.23;7.13;;;;;;;;;;5109301;27;20096;-68
2023/01/09 12:25:50;;;;;;;9.93;6.57;;;;;;;;;;5104826;28;20138;-68
2023/01/09 12:28:19;;;;;;;12.45;8.05;;;;;;;;;;5098915;27;20063;-67
2023/01/09 12:31:07;;;;;;;12.38;8.02;;;;;;;;;;5105366;27;20059;-68
2023/01/09 12:33:33;;;;;;;14.90;8.10;;;;;;;;;;5106062;27;20043;-68
2023/01/09 12:36:25;;;;;;;15.30;8.13;;;;;;;;;;5118983;27;20035;-68
2023/01/09 12:38:55;;;;;;;13.77;11.38;;;;;;;;;;5102980;28;20040;-68
2023/01/09 12:41:33;;;;;;;13.75;9.15;;;;;;;;;;5105147;27;20043;-68
2023/01/09 12:44:09;;;;;;;16.55;8.75;;;;;;;;;;5111680;27;20054;-67
2023/01/09 12:46:38;;;;;;;14.45;8.85;;;;;;;;;;5102596;27;20047;-68
2023/01/09 12:49:07;;;;;;;15.38;8.63;;;;;;;;;;5098749;27;20051;-68
2023/01/09 12:51:37;;;;;;;14.60;9.82;;;;;;;;;;5101678;28;20122;-68
2023/01/09 12:54:08;;;;;;;16.83;9.73;;;;;;;;;;5114931;27;20035;-68
2023/01/09 12:56:43;;;;;;;17.02;9.57;;;;;;;;;;5114412;27;20065;-68
2023/01/09 12:59:29;;;;;;;14.70;9.68;;;;;;;;;;5107699;28;20516;-70
2023/01/09 13:01:58;;;;;;;15.27;9.10;;;;;;;;;;5109482;28;20040;-72
2023/01/09 13:04:27;;;;;;;13.85;9.00;;;;;;;;;;5112978;28;20039;-70
2023/01/09 13:07:00;;;;;;;17.05;9.35;;;;;;;;;;5113727;28;20119;-69
2023/01/09 13:09:27;;;;;;;17.05;9.98;;;;;;;;;;5113128;28;20047;-69
2023/01/09 13:11:58;;;;;;;17.95;8.88;;;;;;;;;;5110264;28;20039;-71
2023/01/09 13:14:36;;;;;;;13.13;9.38;;;;;;;;;;5112715;28;20039;-70
2023/01/09 13:17:03;;;;;;;15.65;8.90;;;;;;;;;;5108966;28;20473;-70
2023/01/09 13:19:32;;;;;;;15.68;9.02;;;;;;;;;;5114336;28;20054;-70
2023/01/09 13:21:58;;;;;;;14.80;8.63;;;;;;;;;;5109788;27;20043;-70
2023/01/09 13:24:33;;;;;;;13.68;9.13;;;;;;;;;;5112084;28;20093;-70
2023/01/09 13:27:01;;;;;;;14.57;9.18;;;;;;;;;;5113461;28;20039;-70
2023/01/09 13:29:34;;;;;;;13.32;9.40;;;;;;;;;;5111578;28;20043;-70
2023/01/09 13:32:13;;;;;;;16.83;10.35;;;;;;;;;;5110401;28;20039;-70
2023/01/09 13:34:39;;;;;;;18.48;10.52;;;;;;;;;;5126696;27;20043;-70
2023/01/09 13:37:19;;;;;;;15.10;9.27;;;;;;;;;;5123165;27;20055;-70
2023/01/09 13:39:53;;;;;;;14.90;9.45;;;;;;;;;;5106806;28;20044;-70
2023/01/09 13:42:35;;;;;;;14.63;8.88;;;;;;;;;;5093763;28;20056;-70
2023/01/09 13:45:20;;;;;;;12.70;8.55;;;;;;;;;;5093626;28;20448;-70
2023/01/09 13:47:46;;;;;;;14.60;8.75;;;;;;;;;;5110085;28;20442;-70
2023/01/09 13:50:23;;;;;;;14.13;9.73;;;;;;;;;;5109322;27;20047;-70
2023/01/09 13:52:49;;;;;;;13.13;9.15;;;;;;;;;;5108735;28;20048;-70
2023/01/09 13:55:15;;;;;;;15.00;9.38;;;;;;;;;;5113511;28;20123;-70
2023/01/09 13:58:04;;;;;;;14.98;9.65;;;;;;;;;;5113900;28;20052;-70
2023/01/09 14:00:36;;;;;;;15.07;9.93;;;;;;;;;;5112282;28;20052;-70
2023/01/09 14:03:16;;;;;;;16.27;10.13;;;;;;;;;;5112581;28;20516;-71
2023/01/09 14:05:42;;;;;;;13.65;9.13;;;;;;;;;;5113508;28;20031;-70
2023/01/09 14:08:12;;;;;;;14.30;10.55;;;;;;;;;;5105382;28;20102;-70
2023/01/09 14:10:38;;;;;;;17.10;10.45;;;;;;;;;;5107516;28;20055;-71
2023/01/09 14:13:23;;;;;;;18.85;10.00;;;;;;;;;;5112878;28;20046;-70
2023/01/09 14:15:50;;;;;;;18.65;10.40;;;;;;;;;;5104628;28;20039;-71
2023/01/09 14:18:17;;;;;;;21.45;11.20;;;;;;;;;;5105485;28;20043;-71
2023/01/09 14:20:45;;;;;;;18.70;10.30;;;;;;;;;;5094897;28;20057;-70
2023/01/09 14:23:25;;;;;;;20.23;10.85;;;;;;;;;;5113379;28;20048;-70
2023/01/09 14:25:52;;;;;;;17.30;11.13;;;;;;;;;;5112484;28;20130;-71
2023/01/09 14:28:19;;;;;;;13.90;10.02;;;;;;;;;;5112162;28;20043;-71
2023/01/09 14:30:51;;;;;;;18.20;11.13;;;;;;;;;;5111783;28;20516;-71
2023/01/09 14:33:17;;;;;;;16.77;12.07;;;;;;;;;;5112187;28;20058;-71
2023/01/09 14:36:02;;;;;;;19.15;12.68;;;;;;;;;;5110334;28;20063;-71
2023/01/09 14:38:33;;;;;;;21.00;12.75;;;;;;;;;;5092643;28;20090;-71
2023/01/09 14:41:03;;;;;;;21.20;11.95;;;;;;;;;;5092518;28;20593;-71
2023/01/09 14:43:39;;;;;;;18.20;12.60;;;;;;;;;;5092406;28;20047;-71
2023/01/09 14:46:08;;;;;;;15.80;11.18;;;;;;;;;;5100422;28;20047;-71
2023/01/09 14:48:35;;;;;;;20.20;11.52;;;;;;;;;;5111123;27;20477;-71
2023/01/09 14:51:01;;;;;;;17.42;10.02;;;;;;;;;;5112995;28;20084;-72
2023/01/09 14:53:33;;;;;;;18.42;10.65;;;;;;;;;;5095077;28;20036;-72
2023/01/09 14:55:59;;;;;;;19.88;10.95;;;;;;;;;;5111211;27;20052;-71
2023/01/09 14:58:32;;;;;;;17.05;9.15;;;;;;;;;;5116895;28;20074;-72
2023/01/09 15:01:03;;;;;;;17.60;9.63;;;;;;;;;;5096109;28;20032;-72
2023/01/09 15:03:32;;;;;;;14.55;9.07;;;;;;;;;;5101216;28;20056;-71